Time;durP1;ratioP1;P1;durP2;ratioP2;P2;SDS_P1;SDS_P2;PMS_P1;PMS_P2;Temp;Humidity;BMP_temperature;BMP_pressure;BME280_temperature;BME280_humidity;BME280_pressure;Samples;Min_cycle;Max_cycle;Signal;HPM_P1;HPM_P2
2021/04/09 00:01:11;;;;;;;24.38;16.27;;;4.10;99.90;;;;;;4212977;28;20032;-78
2021/04/09 00:03:12;;;;;;;25.98;16.83;;;4.20;99.90;;;;;;4180243;28;20039;-77
2021/04/09 00:05:17;;;;;;;22.25;15.95;;;4.20;99.90;;;;;;4179995;28;20037;-77
2021/04/09 00:07:18;;;;;;;23.58;15.57;;;4.20;99.90;;;;;;4180203;28;20071;-76
2021/04/09 00:09:19;;;;;;;27.90;16.90;;;4.20;99.90;;;;;;4196676;28;20041;-77
2021/04/09 00:11:20;;;;;;;26.42;15.90;;;4.20;99.90;;;;;;4196292;28;20036;-76
2021/04/09 00:13:20;;;;;;;22.80;17.23;;;4.20;99.90;;;;;;4196564;28;20048;-76
2021/04/09 00:15:22;;;;;;;25.88;17.92;;;4.20;99.90;;;;;;4196677;28;20530;-77
2021/04/09 00:17:22;;;;;;;22.95;17.02;;;4.10;99.90;;;;;;4179872;28;20029;-78
2021/04/09 00:19:26;;;;;;;22.63;16.33;;;4.10;99.90;;;;;;4179964;28;20029;-77
2021/04/09 00:21:27;;;;;;;20.27;16.08;;;4.00;99.90;;;;;;4180071;28;20025;-77
2021/04/09 00:23:28;;;;;;;25.05;17.30;;;4.00;99.90;;;;;;4213309;28;20040;-77
2021/04/09 00:25:29;;;;;;;26.63;16.58;;;4.10;99.90;;;;;;4179006;28;20045;-76
2021/04/09 00:27:29;;;;;;;23.73;16.75;;;4.00;99.90;;;;;;4197763;28;20038;-76
2021/04/09 00:29:30;;;;;;;25.65;16.95;;;3.90;99.90;;;;;;4179809;28;20592;-76
2021/04/09 00:31:32;;;;;;;25.90;18.05;;;4.00;99.90;;;;;;4196643;28;20036;-77
2021/04/09 00:33:33;;;;;;;23.73;16.85;;;4.00;99.90;;;;;;4196022;28;20078;-77
2021/04/09 00:35:34;;;;;;;22.35;16.92;;;3.90;99.90;;;;;;4191121;28;20036;-77
2021/04/09 00:37:34;;;;;;;22.45;16.77;;;3.90;99.90;;;;;;4179330;28;20063;-76
2021/04/09 00:39:35;;;;;;;23.70;16.45;;;3.90;99.90;;;;;;4195507;28;20039;-77
2021/04/09 00:41:40;;;;;;;24.50;16.48;;;3.80;99.90;;;;;;4196104;28;20037;-77
2021/04/09 00:43:42;;;;;;;22.20;16.08;;;3.80;99.90;;;;;;4195454;28;20235;-77
2021/04/09 00:45:44;;;;;;;36.03;20.98;;;3.80;99.90;;;;;;4179561;28;20033;-77
2021/04/09 00:47:45;;;;;;;26.40;17.15;;;3.90;99.90;;;;;;4212999;28;20036;-76
2021/04/09 00:49:46;;;;;;;25.42;17.52;;;3.80;99.90;;;;;;4173792;28;20044;-77
2021/04/09 00:51:46;;;;;;;27.45;16.70;;;3.90;99.90;;;;;;4179406;28;20025;-77
2021/04/09 00:53:48;;;;;;;26.27;16.65;;;3.90;99.90;;;;;;4176146;28;20073;-77
2021/04/09 00:55:49;;;;;;;26.67;17.35;;;3.90;99.90;;;;;;4196040;28;20119;-77
2021/04/09 00:57:51;;;;;;;26.35;17.33;;;3.90;99.90;;;;;;4172414;28;20042;-77
2021/04/09 00:59:53;;;;;;;26.52;17.48;;;3.90;99.90;;;;;;4204808;28;20387;-77
2021/04/09 01:01:54;;;;;;;22.77;15.23;;;4.00;99.90;;;;;;4191798;28;20029;-77
2021/04/09 01:03:55;;;;;;;25.85;16.90;;;4.00;99.90;;;;;;4178954;28;20472;-78
2021/04/09 01:05:56;;;;;;;28.40;17.55;;;4.00;99.90;;;;;;4179242;28;20480;-76
2021/04/09 01:08:01;;;;;;;27.58;18.00;;;4.00;99.90;;;;;;4195874;28;20063;-76
2021/04/09 01:10:05;;;;;;;29.17;16.98;;;4.00;99.90;;;;;;4164140;28;20112;-77
2021/04/09 01:12:07;;;;;;;22.83;17.67;;;4.00;99.90;;;;;;4179358;28;20021;-76
2021/04/09 01:14:09;;;;;;;24.20;18.45;;;3.90;99.90;;;;;;4195493;28;20036;-77
2021/04/09 01:16:26;;;;;;;27.67;18.93;;;3.90;99.90;;;;;;4179079;28;20114;-76
2021/04/09 01:18:39;;;;;;;21.27;16.27;;;3.90;99.90;;;;;;4211177;28;20373;-75
2021/04/09 01:20:59;;;;;;;22.80;16.33;;;3.90;99.90;;;;;;4195308;28;20033;-76
2021/04/09 01:23:56;;;;;;;24.98;16.77;;;4.10;99.90;;;;;;4178866;28;20520;-75
2021/04/09 01:26:06;;;;;;;27.65;17.65;;;4.10;99.90;;;;;;4187568;28;20625;-76
2021/04/09 01:29:03;;;;;;;24.85;16.85;;;4.10;99.90;;;;;;4196519;28;20035;-77
2021/04/09 01:31:48;;;;;;;23.25;16.52;;;4.10;99.90;;;;;;4187700;28;20383;-77
2021/04/09 01:33:54;;;;;;;29.30;18.13;;;4.10;99.90;;;;;;4169584;28;20032;-76
2021/04/09 01:36:04;;;;;;;31.77;17.77;;;4.10;99.90;;;;;;4178980;28;20040;-77
2021/04/09 01:38:07;;;;;;;23.60;16.67;;;4.20;99.90;;;;;;4194781;28;20121;-77
2021/04/09 01:40:26;;;;;;;26.33;18.10;;;4.10;99.90;;;;;;4196780;28;20028;-77
2021/04/09 01:42:31;;;;;;;25.60;17.70;;;4.10;99.90;;;;;;4179208;28;20518;-78
2021/04/09 01:44:34;;;;;;;25.20;16.88;;;4.20;99.90;;;;;;4195110;28;20079;-77
2021/04/09 01:46:40;;;;;;;31.77;20.27;;;4.20;99.90;;;;;;4195709;28;20121;-77
2021/04/09 01:48:45;;;;;;;24.40;16.77;;;4.20;99.90;;;;;;4178112;28;20470;-78
2021/04/09 01:50:47;;;;;;;28.73;16.50;;;4.20;99.90;;;;;;4194590;28;20037;-76
2021/04/09 01:52:50;;;;;;;23.05;16.63;;;4.20;99.90;;;;;;4175973;28;20029;-77
2021/04/09 01:54:53;;;;;;;28.40;18.10;;;4.10;99.90;;;;;;4193299;28;20502;-77
2021/04/09 01:56:54;;;;;;;29.40;18.15;;;4.00;99.90;;;;;;4194471;28;20074;-77
2021/04/09 01:58:56;;;;;;;23.40;16.67;;;4.00;99.90;;;;;;4174656;28;20068;-77
2021/04/09 02:00:59;;;;;;;23.27;17.20;;;4.10;99.90;;;;;;4177881;28;20037;-77
2021/04/09 02:03:00;;;;;;;25.15;17.52;;;4.10;99.90;;;;;;4208689;28;20044;-77
2021/04/09 02:05:03;;;;;;;25.15;17.15;;;4.10;99.90;;;;;;4194337;28;20051;-79
2021/04/09 02:07:05;;;;;;;27.27;17.67;;;4.10;99.90;;;;;;4208601;28;20136;-78
2021/04/09 02:09:07;;;;;;;28.63;18.63;;;4.00;99.90;;;;;;4177888;28;20063;-77
2021/04/09 02:11:08;;;;;;;24.92;16.67;;;4.10;99.90;;;;;;4177664;28;20032;-77
2021/04/09 02:13:09;;;;;;;23.70;17.60;;;4.10;99.90;;;;;;4177532;28;20116;-77
2021/04/09 02:15:14;;;;;;;30.73;17.20;;;4.10;99.90;;;;;;4193950;28;20376;-77
2021/04/09 02:17:14;;;;;;;26.67;16.88;;;4.10;99.90;;;;;;4191537;28;20083;-77
2021/04/09 02:19:16;;;;;;;26.98;17.77;;;4.10;99.90;;;;;;4210793;28;20480;-77
2021/04/09 02:21:17;;;;;;;23.67;16.85;;;4.20;99.90;;;;;;4193311;28;20033;-77
2021/04/09 02:23:19;;;;;;;24.00;15.98;;;4.20;99.90;;;;;;4177385;28;20028;-77
2021/04/09 02:25:22;;;;;;;31.20;18.48;;;4.20;99.90;;;;;;4192103;28;20124;-77
2021/04/09 02:27:23;;;;;;;26.60;17.05;;;4.20;99.90;;;;;;4191308;28;20048;-77
2021/04/09 02:29:25;;;;;;;27.52;17.40;;;4.30;99.90;;;;;;4193705;28;20393;-77
2021/04/09 02:31:27;;;;;;;21.98;17.13;;;4.30;99.90;;;;;;4195530;28;20104;-77
2021/04/09 02:33:30;;;;;;;25.30;16.05;;;4.30;99.90;;;;;;4193843;28;20024;-77
2021/04/09 02:35:31;;;;;;;25.40;16.52;;;4.40;99.90;;;;;;4194047;28;20082;-77
2021/04/09 02:37:32;;;;;;;30.85;16.92;;;4.40;99.90;;;;;;4210979;28;20031;-77
2021/04/09 02:39:38;;;;;;;31.35;18.30;;;4.40;99.90;;;;;;4193989;28;20036;-77
2021/04/09 02:41:53;;;;;;;26.23;17.60;;;4.30;99.90;;;;;;4193775;28;20059;-77
2021/04/09 02:43:55;;;;;;;24.95;17.33;;;4.40;99.90;;;;;;4176248;28;20029;-77
2021/04/09 02:45:57;;;;;;;26.77;16.17;;;4.50;99.90;;;;;;4189997;28;20086;-77
2021/04/09 02:48:00;;;;;;;24.50;17.70;;;4.50;99.90;;;;;;4177454;28;20094;-77
2021/04/09 02:50:21;;;;;;;31.05;18.27;;;4.50;99.90;;;;;;4193992;28;20415;-76
2021/04/09 02:52:44;;;;;;;25.33;16.35;;;4.50;99.90;;;;;;4210733;28;20051;-77
2021/04/09 02:54:51;;;;;;;23.48;16.48;;;4.50;99.90;;;;;;4192550;28;20032;-77
2021/04/09 02:56:54;;;;;;;27.98;18.13;;;4.50;99.90;;;;;;4177242;28;20079;-77
2021/04/09 02:58:56;;;;;;;25.85;16.42;;;4.50;99.90;;;;;;4177030;28;20528;-77
2021/04/09 03:01:00;;;;;;;30.30;18.37;;;4.50;99.90;;;;;;4191344;28;20166;-77
2021/04/09 03:03:02;;;;;;;28.20;15.82;;;4.60;99.90;;;;;;4193434;28;20283;-77
2021/04/09 03:05:08;;;;;;;26.17;16.90;;;4.40;99.90;;;;;;4193446;28;20388;-77
2021/04/09 03:07:11;;;;;;;26.50;17.65;;;4.60;99.90;;;;;;4193816;28;20040;-77
2021/04/09 03:09:13;;;;;;;22.90;16.83;;;4.60;99.90;;;;;;4193983;28;20055;-77
2021/04/09 03:11:13;;;;;;;28.73;16.73;;;4.60;99.90;;;;;;4193980;28;20027;-77
2021/04/09 03:13:15;;;;;;;26.10;15.95;;;4.70;99.90;;;;;;4177483;28;20097;-77
2021/04/09 03:15:31;;;;;;;25.67;16.55;;;4.70;99.90;;;;;;4194523;28;20094;-77
2021/04/09 03:17:41;;;;;;;22.98;16.33;;;4.80;99.90;;;;;;4194165;28;20029;-77
2021/04/09 03:19:42;;;;;;;20.30;14.60;;;4.80;99.90;;;;;;4176170;28;20090;-77
2021/04/09 03:21:43;;;;;;;24.10;15.38;;;4.70;99.90;;;;;;4192741;28;20052;-77
2021/04/09 03:23:43;;;;;;;25.38;16.38;;;4.70;99.90;;;;;;4193308;28;20032;-77
2021/04/09 03:25:44;;;;;;;23.95;17.52;;;4.70;99.90;;;;;;4193518;28;20036;-77
2021/04/09 03:27:45;;;;;;;22.35;15.50;;;4.70;99.90;;;;;;4176870;28;20064;-77
2021/04/09 03:29:46;;;;;;;29.85;15.80;;;4.80;99.90;;;;;;4175527;28;20041;-76
2021/04/09 03:31:47;;;;;;;25.58;16.35;;;4.80;99.90;;;;;;4193606;28;20120;-76
2021/04/09 03:33:47;;;;;;;24.48;16.58;;;4.80;99.90;;;;;;4179814;28;20110;-76
2021/04/09 03:35:48;;;;;;;27.25;16.70;;;4.80;99.90;;;;;;4193589;28;20032;-76
2021/04/09 03:37:49;;;;;;;22.33;15.52;;;4.80;99.90;;;;;;4213189;28;20067;-76
2021/04/09 03:39:50;;;;;;;23.35;16.25;;;4.80;99.90;;;;;;4180039;28;20063;-76
2021/04/09 03:41:51;;;;;;;22.33;15.30;;;4.80;99.90;;;;;;4197760;28;20020;-76
2021/04/09 03:43:51;;;;;;;22.85;17.08;;;4.80;99.90;;;;;;4196750;28;20099;-77
2021/04/09 03:45:52;;;;;;;21.17;15.18;;;4.70;99.90;;;;;;4194174;28;20079;-76
2021/04/09 03:47:53;;;;;;;24.73;16.38;;;4.70;99.90;;;;;;4198304;28;20035;-76
2021/04/09 03:49:53;;;;;;;25.25;18.55;;;4.70;99.90;;;;;;4196261;28;20032;-76
2021/04/09 03:51:56;;;;;;;24.95;17.77;;;4.70;99.90;;;;;;4180115;28;20044;-76
2021/04/09 03:53:58;;;;;;;26.13;17.45;;;4.70;99.90;;;;;;4179048;28;20124;-76
2021/04/09 03:55:58;;;;;;;24.98;17.13;;;4.60;99.90;;;;;;4180236;28;20090;-76
2021/04/09 03:58:00;;;;;;;21.83;16.48;;;4.70;99.90;;;;;;4193465;28;20025;-76
2021/04/09 04:00:01;;;;;;;25.48;16.17;;;4.70;99.90;;;;;;4190110;28;20031;-78
2021/04/09 04:02:02;;;;;;;26.48;18.42;;;4.70;99.90;;;;;;4196172;28;20021;-77
2021/04/09 04:04:03;;;;;;;23.92;16.77;;;4.60;99.90;;;;;;4193018;28;20035;-76
2021/04/09 04:06:04;;;;;;;23.80;16.05;;;4.60;99.90;;;;;;4179503;28;20025;-78
2021/04/09 04:08:05;;;;;;;25.52;17.63;;;4.60;99.90;;;;;;4177019;28;20040;-76
2021/04/09 04:10:06;;;;;;;24.33;17.17;;;4.60;99.90;;;;;;4196833;28;20058;-76
2021/04/09 04:12:08;;;;;;;28.63;16.73;;;4.70;99.90;;;;;;4179507;28;20032;-76
2021/04/09 04:14:09;;;;;;;22.95;17.08;;;4.70;99.90;;;;;;4182477;28;20029;-76
2021/04/09 04:16:10;;;;;;;20.63;15.63;;;4.70;99.90;;;;;;4194474;28;20037;-76
2021/04/09 04:18:10;;;;;;;26.40;18.30;;;4.70;99.90;;;;;;4195349;28;20029;-76
2021/04/09 04:20:12;;;;;;;23.35;16.08;;;4.70;99.90;;;;;;4179379;28;20052;-76
2021/04/09 04:22:13;;;;;;;23.25;16.48;;;4.80;99.90;;;;;;4195932;28;20025;-76
2021/04/09 04:24:14;;;;;;;25.83;17.17;;;4.90;99.90;;;;;;4165694;28;20045;-77
2021/04/09 04:26:17;;;;;;;28.45;17.35;;;4.90;99.90;;;;;;4178254;28;20489;-76
2021/04/09 04:28:18;;;;;;;23.75;16.75;;;4.80;99.90;;;;;;4167236;28;20029;-76
2021/04/09 04:30:19;;;;;;;27.90;16.45;;;4.80;99.90;;;;;;4196947;28;20056;-76
2021/04/09 04:32:20;;;;;;;24.20;16.58;;;4.90;99.90;;;;;;4160322;28;20068;-76
2021/04/09 04:34:21;;;;;;;25.77;15.95;;;4.90;99.90;;;;;;4194742;28;20040;-76
2021/04/09 04:36:22;;;;;;;24.70;16.35;;;4.90;99.90;;;;;;4187233;28;20040;-75
2021/04/09 04:38:23;;;;;;;23.17;16.98;;;4.80;99.90;;;;;;4176352;28;20144;-75
2021/04/09 04:40:25;;;;;;;22.42;16.25;;;4.90;99.90;;;;;;4211829;28;20035;-76
2021/04/09 04:42:25;;;;;;;23.35;17.45;;;4.80;99.90;;;;;;4177338;28;20076;-75
2021/04/09 04:44:26;;;;;;;28.00;17.65;;;4.80;99.90;;;;;;4169920;28;20045;-76
2021/04/09 04:46:27;;;;;;;25.55;16.55;;;4.80;99.90;;;;;;4177285;28;20041;-76
2021/04/09 04:48:28;;;;;;;31.40;17.67;;;4.80;99.90;;;;;;4193861;28;20036;-75
2021/04/09 04:50:29;;;;;;;28.63;18.85;;;4.80;99.90;;;;;;4197416;28;20489;-75
2021/04/09 04:52:29;;;;;;;25.25;16.73;;;4.80;99.90;;;;;;4177749;28;20190;-76
2021/04/09 04:54:30;;;;;;;26.38;16.33;;;4.80;99.90;;;;;;4178732;28;20071;-78
2021/04/09 04:56:31;;;;;;;24.10;15.95;;;4.80;99.90;;;;;;4193938;28;20044;-76
2021/04/09 04:58:31;;;;;;;26.35;16.00;;;4.80;99.90;;;;;;4186514;28;20044;-77
2021/04/09 05:00:32;;;;;;;23.92;16.45;;;4.80;99.90;;;;;;4193167;28;20032;-77
2021/04/09 05:02:34;;;;;;;25.58;17.38;;;4.80;99.90;;;;;;4177592;28;20036;-76
2021/04/09 05:04:35;;;;;;;27.70;19.65;;;4.70;99.90;;;;;;4181750;28;20033;-76
2021/04/09 05:06:35;;;;;;;22.83;15.65;;;4.70;99.90;;;;;;4171452;28;20040;-77
2021/04/09 05:08:36;;;;;;;23.83;16.73;;;4.70;99.90;;;;;;4193611;28;20043;-77
2021/04/09 05:10:37;;;;;;;22.63;16.42;;;4.60;99.90;;;;;;4195271;28;20036;-77
2021/04/09 05:12:37;;;;;;;23.58;16.85;;;4.60;99.90;;;;;;4192916;28;20024;-77
2021/04/09 05:14:38;;;;;;;24.58;16.15;;;4.60;99.90;;;;;;4178641;28;20128;-77
2021/04/09 05:16:39;;;;;;;24.38;16.33;;;4.60;99.90;;;;;;4179133;28;20440;-76
2021/04/09 05:18:40;;;;;;;25.73;16.42;;;4.70;99.90;;;;;;4195165;28;20064;-77
2021/04/09 05:20:41;;;;;;;28.75;17.83;;;4.70;99.90;;;;;;4178773;28;20033;-77
2021/04/09 05:22:41;;;;;;;22.23;16.10;;;4.60;99.90;;;;;;4195616;28;20033;-77
2021/04/09 05:24:42;;;;;;;23.70;15.05;;;4.60;99.90;;;;;;4178555;28;20045;-77
2021/04/09 05:26:43;;;;;;;28.95;17.00;;;4.60;99.90;;;;;;4194984;28;20085;-77
2021/04/09 05:28:43;;;;;;;21.98;14.40;;;4.70;99.90;;;;;;4195175;28;20054;-76
2021/04/09 05:30:44;;;;;;;23.08;14.93;;;4.70;99.90;;;;;;4178307;28;20587;-77
2021/04/09 05:32:48;;;;;;;22.25;16.25;;;4.80;99.90;;;;;;4175591;28;20033;-77
2021/04/09 05:34:49;;;;;;;22.05;15.23;;;4.80;99.90;;;;;;4178071;28;20033;-77
2021/04/09 05:36:49;;;;;;;21.38;14.60;;;4.80;99.90;;;;;;4177863;28;20092;-77
2021/04/09 05:38:50;;;;;;;22.88;16.52;;;4.90;99.90;;;;;;4211071;28;20040;-77
2021/04/09 05:40:51;;;;;;;18.75;13.35;;;4.90;99.90;;;;;;4194461;28;20083;-78
2021/04/09 05:42:56;;;;;;;23.58;15.80;;;4.90;99.90;;;;;;4178722;28;20033;-78
2021/04/09 05:44:57;;;;;;;17.02;13.00;;;4.90;99.90;;;;;;4195307;28;20056;-78
2021/04/09 05:46:58;;;;;;;20.67;15.57;;;4.90;99.90;;;;;;4178399;28;20056;-77
2021/04/09 05:48:59;;;;;;;21.58;12.95;;;4.90;99.90;;;;;;4192087;28;20158;-77
2021/04/09 05:50:59;;;;;;;24.35;14.23;;;5.00;99.90;;;;;;4192735;28;20031;-78
2021/04/09 05:53:02;;;;;;;23.38;14.73;;;5.10;99.90;;;;;;4194512;28;20044;-77
2021/04/09 05:55:03;;;;;;;20.80;14.98;;;5.10;99.90;;;;;;4189336;28;20056;-78
2021/04/09 05:57:04;;;;;;;19.45;15.07;;;5.20;99.90;;;;;;4194794;28;20040;-78
2021/04/09 05:59:05;;;;;;;23.65;14.13;;;5.20;99.90;;;;;;4181816;28;20059;-78
2021/04/09 06:01:06;;;;;;;22.92;14.77;;;5.20;99.90;;;;;;4194492;28;20032;-78
2021/04/09 06:03:07;;;;;;;24.08;14.85;;;5.30;99.90;;;;;;4177486;28;20037;-77
2021/04/09 06:05:09;;;;;;;22.63;13.68;;;5.30;99.90;;;;;;4178386;28;20055;-77
2021/04/09 06:07:10;;;;;;;19.85;14.68;;;5.40;99.90;;;;;;4193408;28;20037;-76
2021/04/09 06:09:11;;;;;;;19.77;14.32;;;5.50;99.90;;;;;;4192947;28;20089;-76
2021/04/09 06:11:11;;;;;;;19.10;13.82;;;5.60;99.90;;;;;;4193289;28;20040;-76
2021/04/09 06:13:12;;;;;;;18.48;12.93;;;5.70;99.90;;;;;;4177457;28;20041;-77
2021/04/09 06:15:13;;;;;;;19.70;13.88;;;5.80;99.90;;;;;;4178114;28;20081;-76
2021/04/09 06:17:14;;;;;;;25.33;14.38;;;5.80;99.90;;;;;;4194313;28;20032;-77
2021/04/09 06:19:15;;;;;;;20.63;13.70;;;5.90;99.90;;;;;;4177900;28;20580;-76
2021/04/09 06:21:16;;;;;;;17.77;12.40;;;5.90;99.90;;;;;;4178336;28;20514;-77
2021/04/09 06:23:16;;;;;;;18.85;13.45;;;5.90;99.90;;;;;;4193595;28;20032;-75
2021/04/09 06:25:19;;;;;;;22.15;13.02;;;5.80;99.90;;;;;;4177825;28;20055;-79
2021/04/09 06:27:20;;;;;;;17.98;12.38;;;5.90;99.90;;;;;;4186905;28;20415;-78
2021/04/09 06:29:21;;;;;;;19.98;12.02;;;5.90;99.90;;;;;;4194094;28;20098;-78
2021/04/09 06:31:22;;;;;;;20.35;13.05;;;6.00;99.90;;;;;;4194467;28;20045;-77
2021/04/09 06:33:22;;;;;;;22.08;14.45;;;6.00;99.90;;;;;;4193925;28;20036;-76
2021/04/09 06:35:23;;;;;;;17.13;14.05;;;6.00;99.90;;;;;;4177350;28;20112;-78
2021/04/09 06:37:24;;;;;;;18.02;12.82;;;6.00;99.90;;;;;;4173201;28;20060;-79
2021/04/09 06:39:25;;;;;;;20.45;13.95;;;6.00;99.90;;;;;;4174946;28;20036;-78
2021/04/09 06:41:25;;;;;;;21.15;14.20;;;6.00;99.90;;;;;;4176962;28;20527;-77
2021/04/09 06:43:26;;;;;;;21.30;12.40;;;6.20;99.90;;;;;;4173311;28;20269;-78
2021/04/09 06:45:28;;;;;;;21.35;13.18;;;6.30;99.90;;;;;;4172617;28;20136;-78
2021/04/09 06:47:29;;;;;;;17.63;13.18;;;6.40;99.90;;;;;;4204619;28;20376;-80
2021/04/09 06:49:30;;;;;;;16.52;13.48;;;6.60;99.90;;;;;;4192911;28;20112;-77
2021/04/09 06:51:32;;;;;;;19.02;11.52;;;6.60;99.90;;;;;;4175737;28;20147;-77
2021/04/09 06:53:33;;;;;;;18.75;13.15;;;6.70;99.90;;;;;;4178729;28;20124;-78
2021/04/09 06:55:35;;;;;;;18.15;12.48;;;6.80;99.90;;;;;;4192861;28;20036;-79
2021/04/09 06:57:39;;;;;;;20.90;12.52;;;6.90;99.90;;;;;;4176872;28;20035;-78
2021/04/09 06:59:43;;;;;;;16.40;10.98;;;6.90;99.90;;;;;;4193377;28;20138;-77
2021/04/09 07:01:45;;;;;;;16.52;13.35;;;7.00;99.90;;;;;;4176544;28;20132;-77
2021/04/09 07:03:46;;;;;;;16.60;13.55;;;7.00;99.90;;;;;;4192664;28;20037;-76
2021/04/09 07:05:49;;;;;;;21.70;13.30;;;7.10;99.90;;;;;;4176469;28;20485;-75
2021/04/09 07:07:50;;;;;;;16.80;12.43;;;7.20;99.90;;;;;;4196006;28;20036;-77
2021/04/09 07:09:51;;;;;;;16.13;12.75;;;7.20;99.90;;;;;;4197773;28;20029;-74
2021/04/09 07:11:53;;;;;;;16.38;11.55;;;7.20;99.90;;;;;;4213406;28;20059;-76
2021/04/09 07:13:56;;;;;;;18.83;10.50;;;7.30;99.90;;;;;;4180713;28;20041;-77
2021/04/09 07:15:56;;;;;;;17.50;12.05;;;7.40;99.90;;;;;;4180568;28;20041;-77
2021/04/09 07:17:57;;;;;;;17.48;12.57;;;7.50;99.90;;;;;;4179964;28;20061;-76
2021/04/09 07:20:22;;;;;;;14.23;12.27;;;7.50;99.90;;;;;;4196594;28;20078;-76
2021/04/09 07:22:31;;;;;;;18.02;13.30;;;7.70;99.90;;;;;;4213115;28;20032;-77
2021/04/09 07:24:33;;;;;;;15.95;12.25;;;7.70;99.90;;;;;;4195945;28;20051;-77
2021/04/09 07:26:45;;;;;;;15.60;12.27;;;7.90;99.90;;;;;;4196471;28;20032;-77
2021/04/09 07:28:46;;;;;;;13.88;11.25;;;8.00;99.90;;;;;;4179365;28;20033;-77
2021/04/09 07:30:51;;;;;;;15.40;10.88;;;8.00;99.90;;;;;;4196516;28;20028;-77
2021/04/09 07:33:02;;;;;;;12.68;10.77;;;7.90;99.90;;;;;;4196792;28;20028;-77
2021/04/09 07:35:13;;;;;;;17.63;10.88;;;7.90;99.90;;;;;;4196358;28;20074;-77
2021/04/09 07:37:14;;;;;;;15.43;10.48;;;7.90;99.90;;;;;;4205341;28;20515;-77
2021/04/09 07:39:30;;;;;;;17.52;11.80;;;8.00;99.90;;;;;;4195277;28;20063;-77
2021/04/09 07:41:31;;;;;;;13.05;10.32;;;8.00;99.90;;;;;;4178351;28;20053;-76
2021/04/09 07:43:39;;;;;;;16.33;10.68;;;8.10;99.90;;;;;;4178247;28;20050;-76
2021/04/09 07:45:39;;;;;;;17.05;11.32;;;8.10;99.90;;;;;;4179044;28;20041;-76
2021/04/09 07:48:01;;;;;;;16.52;10.98;;;8.20;99.90;;;;;;4187399;28;20392;-77
2021/04/09 07:50:11;;;;;;;16.17;11.43;;;8.40;99.90;;;;;;4193303;28;20040;-77
2021/04/09 07:52:15;;;;;;;16.70;11.68;;;8.40;99.90;;;;;;4194258;28;20036;-78
2021/04/09 07:54:25;;;;;;;19.73;12.00;;;8.30;99.90;;;;;;4179096;28;20111;-75
2021/04/09 07:56:40;;;;;;;14.68;11.27;;;8.40;99.90;;;;;;4195923;28;20044;-76
2021/04/09 07:58:43;;;;;;;16.85;10.18;;;8.40;99.90;;;;;;4184643;28;20036;-76
2021/04/09 08:00:46;;;;;;;15.18;11.18;;;8.50;99.90;;;;;;4195625;28;20048;-75
2021/04/09 08:02:49;;;;;;;12.70;9.88;;;8.60;99.90;;;;;;4178137;28;20037;-78
2021/04/09 08:04:58;;;;;;;21.38;14.27;;;8.60;99.90;;;;;;4205000;28;20404;-76
2021/04/09 08:06:59;;;;;;;19.45;12.57;;;8.60;99.90;;;;;;4195132;28;20031;-76
2021/04/09 08:09:00;;;;;;;16.20;10.07;;;8.60;99.90;;;;;;4195549;28;20040;-76
2021/04/09 08:11:20;;;;;;;16.80;11.32;;;8.50;99.90;;;;;;4195877;28;20029;-76
2021/04/09 08:13:22;;;;;;;20.17;11.68;;;8.50;99.90;;;;;;4191059;28;20044;-76
2021/04/09 08:15:30;;;;;;;20.58;11.85;;;8.30;99.90;;;;;;4195477;28;20187;-76
2021/04/09 08:17:31;;;;;;;18.20;11.98;;;8.30;99.90;;;;;;4190078;28;20119;-76
2021/04/09 08:19:32;;;;;;;16.80;11.07;;;8.40;99.90;;;;;;4161249;28;20025;-75
2021/04/09 08:21:45;;;;;;;18.52;12.38;;;8.50;99.90;;;;;;4193093;28;20039;-77
2021/04/09 08:23:45;;;;;;;19.63;11.52;;;8.50;99.90;;;;;;4172454;28;20736;-77
2021/04/09 08:25:47;;;;;;;15.90;12.00;;;8.50;99.90;;;;;;4194397;28;20036;-77
2021/04/09 08:27:47;;;;;;;16.02;12.50;;;8.60;99.90;;;;;;4195303;28;20043;-77
2021/04/09 08:29:48;;;;;;;19.15;11.85;;;8.70;99.90;;;;;;4194151;28;20442;-76
2021/04/09 08:31:50;;;;;;;17.67;10.70;;;8.80;99.90;;;;;;4211402;28;20053;-77
2021/04/09 08:33:52;;;;;;;17.42;11.50;;;8.90;99.90;;;;;;4195208;28;20622;-76
2021/04/09 08:35:53;;;;;;;14.55;10.73;;;9.00;99.90;;;;;;4178806;28;20512;-77
2021/04/09 08:37:58;;;;;;;13.73;11.10;;;9.20;99.90;;;;;;4194515;28;20033;-77
2021/04/09 08:39:58;;;;;;;15.90;10.95;;;9.30;99.90;;;;;;4177923;28;20496;-77
2021/04/09 08:41:59;;;;;;;13.00;10.23;;;9.40;99.90;;;;;;4194323;28;20100;-77
2021/04/09 08:44:00;;;;;;;14.45;10.70;;;9.60;99.90;;;;;;4195841;28;20062;-77
2021/04/09 08:46:01;;;;;;;15.43;10.82;;;9.80;99.90;;;;;;4178359;28;20475;-78
2021/04/09 08:48:02;;;;;;;14.18;9.98;;;9.80;99.90;;;;;;4195602;28;20075;-76
2021/04/09 08:50:09;;;;;;;14.20;10.05;;;9.90;99.90;;;;;;4178604;28;20524;-77
2021/04/09 08:52:14;;;;;;;14.02;9.75;;;9.90;99.90;;;;;;4178876;28;20036;-77
2021/04/09 08:54:23;;;;;;;13.63;9.35;;;10.00;99.90;;;;;;4209094;28;20040;-77
2021/04/09 08:56:35;;;;;;;18.65;9.65;;;10.00;99.90;;;;;;4177464;28;20131;-78
2021/04/09 08:58:47;;;;;;;15.20;9.80;;;10.30;99.90;;;;;;4194916;28;20395;-77
2021/04/09 09:00:51;;;;;;;14.07;9.38;;;10.60;99.90;;;;;;4185998;28;20037;-77
2021/04/09 09:02:54;;;;;;;16.75;9.63;;;10.70;99.90;;;;;;4194690;28;20359;-77
2021/04/09 09:05:02;;;;;;;;;;;10.90;99.90;;;;;;4192735;28;20042;-77
2021/04/09 09:07:02;;;;;;;18.65;8.60;;;11.10;99.90;;;;;;4194035;28;20260;-77
2021/04/09 09:09:03;;;;;;;11.23;8.68;;;11.10;99.90;;;;;;4177558;28;20071;-77
2021/04/09 09:11:04;;;;;;;15.73;8.65;;;11.00;99.90;;;;;;4194827;28;20495;-77
2021/04/09 09:13:05;;;;;;;14.95;9.85;;;10.70;99.90;;;;;;4178390;28;20164;-77
2021/04/09 09:15:06;;;;;;;12.70;8.40;;;10.90;99.90;;;;;;4194900;28;20127;-76
2021/04/09 09:17:19;;;;;;;9.23;7.93;;;10.80;99.90;;;;;;4178476;28;20025;-76
2021/04/09 09:19:38;;;;;;;12.15;8.50;;;10.90;99.90;;;;;;4211606;28;20117;-76
2021/04/09 09:21:39;;;;;;;10.77;8.65;;;11.00;99.90;;;;;;4211117;28;20032;-76
2021/04/09 09:23:57;;;;;;;9.55;8.27;;;10.90;99.90;;;;;;4194960;28;20086;-76
2021/04/09 09:26:23;;;;;;;8.77;7.88;;;10.90;99.90;;;;;;4188741;28;20396;-76
2021/04/09 09:28:29;;;;;;;14.85;8.25;;;10.90;99.90;;;;;;4177892;28;20043;-76
2021/04/09 09:30:37;;;;;;;11.15;9.75;;;10.80;99.90;;;;;;4190252;28;20567;-75
2021/04/09 09:32:38;;;;;;;9.50;8.45;;;10.90;99.90;;;;;;4194754;28;20470;-76
2021/04/09 09:34:40;;;;;;;14.13;8.13;;;10.70;99.90;;;;;;4194271;28;20028;-77
2021/04/09 09:37:20;;;;;;;17.73;7.93;;;11.00;99.90;;;;;;4177757;28;20103;-76
2021/04/09 09:40:02;;;;;;;11.57;7.72;;;10.90;99.90;;;;;;4194199;28;20056;-77
2021/04/09 09:42:19;;;;;;;10.93;7.18;;;11.20;99.90;;;;;;4210663;28;20525;-77
2021/04/09 09:44:57;;;;;;;13.10;8.40;;;11.40;99.90;;;;;;4195862;28;20032;-77
2021/04/09 09:47:35;;;;;;;11.93;9.20;;;11.60;99.90;;;;;;4170288;28;20033;-77
2021/04/09 09:49:36;;;;;;;12.40;8.93;;;11.80;99.90;;;;;;4194080;28;20028;-77
2021/04/09 09:51:37;;;;;;;11.75;9.63;;;12.00;99.90;;;;;;4194180;28;20767;-77
2021/04/09 09:53:56;;;;;;;11.60;9.52;;;12.00;99.90;;;;;;4174055;28;20037;-76
2021/04/09 09:56:26;;;;;;;12.43;9.05;;;12.30;99.90;;;;;;4177594;28;20040;-75
2021/04/09 09:58:29;;;;;;;12.25;8.65;;;12.40;99.90;;;;;;4194068;28;20040;-75
2021/04/09 10:00:50;;;;;;;11.27;8.13;;;12.70;99.90;;;;;;4177468;28;20041;-78
2021/04/09 10:03:08;;;;;;;15.25;7.38;;;13.00;99.90;;;;;;4209790;28;20890;-77
2021/04/09 10:05:09;;;;;;;11.90;8.15;;;13.20;99.90;;;;;;4193792;28;20391;-76
2021/04/09 10:07:10;;;;;;;11.20;8.02;;;13.50;99.90;;;;;;4177775;28;20041;-78
2021/04/09 10:09:11;;;;;;;14.90;8.85;;;13.40;99.90;;;;;;4193567;28;20547;-77
2021/04/09 10:11:18;;;;;;;13.25;8.80;;;13.50;99.90;;;;;;4177384;28;20032;-78
2021/04/09 10:13:40;;;;;;;15.93;8.05;;;13.40;99.90;;;;;;4188695;28;20033;-77
2021/04/09 10:15:42;;;;;;;13.70;8.70;;;13.50;99.90;;;;;;4207039;28;20052;-76
2021/04/09 10:18:06;;;;;;;8.95;7.53;;;14.00;99.90;;;;;;4193832;28;20066;-76
2021/04/09 10:20:07;;;;;;;;;;;14.10;99.90;;;;;;4193306;28;20044;-76
2021/04/09 10:22:16;;;;;;;7.63;6.35;;;14.40;99.90;;;;;;4192740;28;19916;-76
2021/04/09 10:24:21;;;;;;;13.50;6.85;;;14.40;99.90;;;;;;4176139;28;20024;-78
2021/04/09 10:26:25;;;;;;;7.97;6.00;;;14.30;99.90;;;;;;4193940;28;20107;-77
2021/04/09 10:28:26;;;;;;;8.43;7.20;;;14.20;99.90;;;;;;4176597;28;20115;-78
2021/04/09 10:30:32;;;;;;;14.45;8.07;;;14.50;99.90;;;;;;4193535;28;20032;-77
2021/04/09 10:32:33;;;;;;;12.38;7.57;;;14.70;99.90;;;;;;4194838;28;20033;-77
2021/04/09 10:34:34;;;;;;;8.90;7.03;;;14.70;99.90;;;;;;4177267;28;20076;-77
2021/04/09 10:36:35;;;;;;;9.07;7.28;;;14.40;99.90;;;;;;4210385;28;20388;-77
2021/04/09 10:38:36;;;;;;;12.32;7.35;;;14.20;99.90;;;;;;4192763;28;20043;-78
2021/04/09 10:40:57;;;;;;;11.25;7.07;;;14.20;99.90;;;;;;4177017;28;20029;-76